This is the latest recevied weather packets stored in our database for station/object W6UA-13. If no packets are shown the sender has not sent any weather packets the latest 10 day(s).
| Time | Temp. | Humidity | Pressure | Rain* | Wind** | Luminosity | Snow |
|---|---|---|---|---|---|---|---|
| 1777242898 | 16.67° C | 61% | 1014.9 hPa | 0 mm | - | 501 W/m² | - |
| 1777241998 | 16.11° C | 64% | 1015.1 hPa | 0 mm | - | 459 W/m² | - |
| 1777241098 | 16.11° C | 66% | 1015.2 hPa | 0 mm | - | 378 W/m² | - |
| 1777240197 | 15.56° C | 67% | 1015.3 hPa | 0 mm | - | 327 W/m² | - |
| 1777239298 | 15.56° C | 67% | 1015.2 hPa | 0 mm | - | 343 W/m² | - |
| 1777238398 | 15.56° C | 67% | 1015.1 hPa | 0 mm | - | 336 W/m² | - |
| 1777237498 | 15° C | 67% | 1015.1 hPa | 0 mm | - | 271 W/m² | - |
| 1777236598 | 15° C | 68% | 1015.1 hPa | 0 mm | - | 239 W/m² | - |
| 1777235698 | 15° C | 70% | 1015 hPa | 0 mm | - | 248 W/m² | - |
| 1777234798 | 15° C | 70% | 1014.9 hPa | 0 mm | - | 234 W/m² | - |
| 1777233898 | 15° C | 71% | 1014.9 hPa | 0 mm | - | 200 W/m² | - |
| 1777232998 | 14.44° C | 69% | 1014.9 hPa | 0 mm | - | 257 W/m² | - |
| 1777232098 | 14.44° C | 72% | 1014.9 hPa | 0 mm | - | 352 W/m² | - |
| 1777231198 | 13.89° C | 73% | 1014.9 hPa | 0 mm | - | 257 W/m² | - |
| 1777230298 | 13.33° C | 74% | 1015.1 hPa | 0 mm | - | 206 W/m² | - |
| 1777229398 | 13.89° C | 77% | 1015.1 hPa | 0 mm | - | 193 W/m² | - |
| 1777228498 | 15° C | 71% | 1014.9 hPa | 0 mm | - | 83 W/m² | - |
| 1777227598 | 15.56° C | 70% | 1014.9 hPa | 0 mm | - | 188 W/m² | - |
| 1777226698 | 15.56° C | 72% | 1014.7 hPa | 0 mm | - | 390 W/m² | - |
| 1777225798 | 15° C | 74% | 1014.5 hPa | 0 mm | - | 299 W/m² | - |
| 1777224898 | 14.44° C | 76% | 1014.4 hPa | 0 mm | - | 406 W/m² | - |
| 1777223998 | 13.33° C | 79% | 1014.3 hPa | 0 mm | - | 278 W/m² | - |
| 1777223098 | 12.78° C | 84% | 1014 hPa | 0 mm | - | 288 W/m² | - |
| 1777222198 | 12.22° C | 86% | 1013.8 hPa | 0.25 mm | - | 244 W/m² | - |
| 1777221298 | 11.67° C | 87% | 1013.7 hPa | 0.25 mm | - | 90 W/m² | - |
* Rain latest hour (hover to see other rain measurements)
** Current wind speed in m/s (hover to see current wind gust speed)